Time;durP1;ratioP1;P1;durP2;ratioP2;P2;SDS_P1;SDS_P2;PMS_P1;PMS_P2;Temp;Humidity;BMP_temperature;BMP_pressure;BME280_temperature;BME280_humidity;BME280_pressure;Samples;Min_cycle;Max_cycle;Signal;HPM_P1;HPM_P2
2022/02/06 00:01:01;;;;;;;;;23.50;20.25;;;;;20.18;32.28;101759.63;5058707;28;45222;-58
2022/02/06 00:03:27;;;;;;;;;27.00;21.75;;;;;20.16;32.43;101754.44;5058806;28;45453;-54
2022/02/06 00:05:52;;;;;;;;;22.75;19.00;;;;;20.16;32.56;101746.53;5058772;28;45327;-57
2022/02/06 00:08:18;;;;;;;;;23.00;23.00;;;;;20.16;32.79;101753.56;5058165;28;46438;-54
2022/02/06 00:10:44;;;;;;;;;25.75;22.50;;;;;20.15;32.48;101746.56;5058214;28;45374;-56
2022/02/06 00:13:09;;;;;;;;;26.25;20.50;;;;;20.13;32.58;101733.50;5057114;28;45404;-55
2022/02/06 00:15:35;;;;;;;;;22.00;18.50;;;;;20.14;32.93;101729.94;5058252;28;45369;-59
2022/02/06 00:18:00;;;;;;;;;25.25;19.75;;;;;20.11;32.32;101710.78;5058193;28;46279;-59
2022/02/06 00:20:32;;;;;;;;;21.25;17.50;;;;;20.11;32.64;101711.63;5040309;28;45249;-54
2022/02/06 00:23:02;;;;;;;;;13.25;10.25;;;;;20.08;32.60;101706.47;5040632;28;45322;-55
2022/02/06 00:25:43;;;;;;;;;18.50;15.50;;;;;20.07;32.39;101705.63;5058674;28;45503;-56
2022/02/06 00:33:48;;;;;;;;;15.75;13.75;;;;;20.06;32.85;101709.19;5038148;28;45551;-57
2022/02/06 00:39:04;;;;;;;;;19.50;14.00;;;;;20.04;32.64;101713.66;5058235;28;45792;-56
2022/02/06 00:41:32;;;;;;;;;16.00;15.25;;;;;20.00;32.90;101704.19;5058366;28;46093;-56
2022/02/06 00:44:02;;;;;;;;;19.25;13.50;;;;;20.03;32.53;101695.28;5058706;28;45371;-57
2022/02/06 00:46:28;;;;;;;;;15.25;13.00;;;;;20.04;32.86;101678.59;5058361;28;45625;-57
2022/02/06 00:48:57;;;;;;;;;18.00;13.50;;;;;20.03;32.71;101680.34;5057799;28;46376;-55
2022/02/06 00:51:33;;;;;;;;;17.50;14.25;;;;;20.01;32.99;101679.56;5039724;28;45776;-55
2022/02/06 00:53:58;;;;;;;;;18.75;14.25;;;;;20.02;32.52;101667.25;5058334;28;45266;-56
2022/02/06 00:56:24;;;;;;;;;19.75;13.00;;;;;20.01;32.73;101671.66;5057993;28;45657;-56
2022/02/06 00:58:49;;;;;;;;;19.00;15.25;;;;;20.00;32.37;101669.97;5057401;28;45495;-58
2022/02/06 01:01:15;;;;;;;;;16.25;13.25;;;;;20.01;32.87;101670.81;5057656;28;45332;-55
2022/02/06 01:03:40;;;;;;;;;17.00;12.75;;;;;19.98;32.64;101674.44;5057801;28;45342;-57
2022/02/06 01:06:05;;;;;;;;;18.50;15.00;;;;;19.98;32.76;101666.53;5058001;28;45427;-56
2022/02/06 01:08:31;;;;;;;;;14.75;12.00;;;;;19.98;33.00;101666.53;5057496;28;46521;-60
2022/02/06 01:10:56;;;;;;;;;11.75;8.75;;;;;19.98;33.10;101671.81;5057543;28;45387;-56
2022/02/06 01:13:36;;;;;;;;;15.75;12.25;;;;;19.96;32.83;101676.25;5057661;28;45615;-56
2022/02/06 01:16:10;;;;;;;;;12.25;9.00;;;;;19.96;32.84;101681.53;5057227;28;45327;-56
2022/02/06 01:18:40;;;;;;;;;12.50;10.25;;;;;19.96;33.03;101665.75;5057439;28;45363;-55
2022/02/06 01:21:21;;;;;;;;;12.50;9.00;;;;;19.96;32.62;101657.84;5040191;28;45810;-56
2022/02/06 01:23:56;;;;;;;;;13.00;11.50;;;;;19.94;33.02;101670.19;5057593;28;45257;-57
2022/02/06 01:26:37;;;;;;;;;10.75;10.00;;;;;19.96;33.01;101673.63;5057573;28;45514;-57
2022/02/06 01:31:52;;;;;;;;;12.50;9.25;;;;;19.94;33.21;101654.41;5057142;28;45902;-56
2022/02/06 01:34:22;;;;;;;;;11.75;8.50;;;;;19.93;33.32;101644.81;5057221;28;45415;-58
2022/02/06 01:42:03;;;;;;;;;10.50;6.50;;;;;19.93;33.12;101652.69;5057508;28;45719;-55
2022/02/06 01:45:10;;;;;;;;;11.75;7.00;;;;;19.90;32.85;101648.41;5057239;28;45351;-58
2022/02/06 02:20:49;;;;;;;;;9.75;6.25;;;;;19.85;33.15;101584.56;5055818;28;45296;-58
2022/02/06 02:47:14;;;;;;;;;8.00;4.00;;;;;19.83;33.27;101582.91;5056207;28;45960;-56
2022/02/06 02:49:44;;;;;;;;;4.00;4.00;;;;;19.80;33.35;101568.13;5056358;28;45374;-59
2022/02/06 02:52:18;;;;;;;;;9.00;5.00;;;;;19.81;33.35;101572.47;5056295;28;45327;-60
2022/02/06 02:54:48;;;;;;;;;5.00;5.00;;;;;19.80;33.16;101573.38;5056053;28;46539;-55
2022/02/06 02:57:25;;;;;;;;;7.50;5.25;;;;;19.80;33.02;101559.38;5055975;28;45838;-57
2022/02/06 03:02:18;;;;;;;;;5.25;4.50;;;;;19.79;33.21;101540.09;5056427;28;46096;-59
2022/02/06 03:04:49;;;;;;;;;5.25;3.75;;;;;19.80;33.30;101535.69;5056016;28;46401;-55
2022/02/06 03:07:14;;;;;;;;;4.50;3.00;;;;;19.80;33.12;101520.78;5055823;28;45227;-58
2022/02/06 03:09:42;;;;;;;;;6.25;5.00;;;;;19.78;33.44;101518.22;5056208;28;45306;-57
2022/02/06 03:12:09;;;;;;;;;3.75;3.75;;;;;19.77;33.50;101516.50;5056221;28;45546;-57
2022/02/06 03:14:43;;;;;;;;;5.00;3.00;;;;;19.77;33.29;101505.13;5037870;28;47053;-56
2022/02/06 03:17:10;;;;;;;;;3.50;2.50;;;;;19.76;33.36;101508.66;5055863;28;45413;-55
2022/02/06 03:19:42;;;;;;;;;4.00;4.00;;;;;19.73;33.45;101493.88;5056093;28;45351;-57
2022/02/06 03:22:08;;;;;;;;;5.75;4.00;;;;;19.77;33.23;101469.16;5056347;28;45346;-56
2022/02/06 03:24:40;;;;;;;;;4.50;3.00;;;;;19.76;32.97;101477.97;5055490;28;46145;-57
2022/02/06 03:27:06;;;;;;;;;5.00;4.00;;;;;19.75;33.30;101478.00;5056231;28;45416;-57
2022/02/06 03:29:32;;;;;;;;;3.25;3.25;;;;;19.76;33.20;101483.22;5055797;28;45404;-57
2022/02/06 03:31:57;;;;;;;;;5.00;5.00;;;;;19.73;33.54;101485.97;5040818;28;45511;-59
2022/02/06 03:34:22;;;;;;;;;4.50;2.75;;;;;19.75;33.42;101492.03;5058990;28;45433;-56
2022/02/06 03:36:48;;;;;;;;;3.25;2.00;;;;;19.76;33.46;101485.88;5040924;28;45303;-58
2022/02/06 03:39:16;;;;;;;;;3.50;2.75;;;;;19.75;33.25;101476.25;5059009;28;45335;-60
2022/02/06 03:41:53;;;;;;;;;2.25;2.25;;;;;19.74;33.20;101485.06;5059223;28;45486;-58
2022/02/06 03:44:24;;;;;;;;;6.25;3.00;;;;;19.74;33.23;101490.31;5058691;28;45702;-60
2022/02/06 03:47:25;;;;;;;;;2.00;2.00;;;;;19.73;33.67;101483.34;5058899;28;45858;-55
2022/02/06 03:52:09;;;;;;;;;2.25;2.25;;;;;19.73;33.71;101480.72;5059294;28;45503;-56
2022/02/06 03:54:35;;;;;;;;;1.75;1.00;;;;;19.71;33.41;101464.16;5058834;28;45942;-56
2022/02/06 03:57:00;;;;;;;;;2.75;2.75;;;;;19.72;33.81;101478.16;5058632;28;45319;-58
2022/02/06 03:59:26;;;;;;;;;2.50;2.00;;;;;19.69;33.84;101463.34;5058948;28;45367;-55
2022/02/06 04:01:51;;;;;;;;;5.00;3.00;;;;;19.70;33.26;101464.22;5059110;28;45655;-59
2022/02/06 04:04:16;;;;;;;;;3.00;3.00;;;;;19.69;33.39;101454.63;5058543;28;45837;-58
2022/02/06 04:06:42;;;;;;;;;1.25;1.25;;;;;19.71;33.41;101458.03;5058570;28;45901;-57
2022/02/06 04:09:14;;;;;;;;;2.50;2.50;;;;;19.70;33.67;101456.31;5059058;28;45339;-59
2022/02/06 04:11:52;;;;;;;;;2.00;2.00;;;;;19.71;33.72;101460.69;5042136;28;45466;-58
2022/02/06 04:14:28;;;;;;;;;2.00;2.00;;;;;19.71;33.69;101461.50;5058194;28;46327;-56
2022/02/06 04:16:56;;;;;;;;;2.25;1.75;;;;;19.68;34.06;101453.75;5058537;28;45342;-55
2022/02/06 04:19:25;;;;;;;;;2.00;2.00;;;;;19.70;33.56;101462.44;5058522;28;45393;-57
2022/02/06 04:21:52;;;;;;;;;0.00;0.00;;;;;19.69;33.81;101452.81;5058789;28;45478;-59
2022/02/06 04:24:18;;;;;;;;;3.50;2.00;;;;;19.69;33.84;101458.09;5058435;28;46248;-58
2022/02/06 04:26:44;;;;;;;;;2.00;2.00;;;;;19.67;33.71;101440.66;5058271;28;45756;-60
2022/02/06 04:29:10;;;;;;;;;1.00;1.00;;;;;19.67;33.49;101422.25;5058712;28;45357;-61
2022/02/06 04:31:38;;;;;;;;;2.00;2.00;;;;;19.66;34.02;101408.28;5058410;28;45323;-58
2022/02/06 04:34:04;;;;;;;;;1.75;1.75;;;;;19.67;34.01;101415.25;5056893;28;47940;-57
2022/02/06 04:36:36;;;;;;;;;2.00;2.00;;;;;19.67;33.85;101404.72;5058212;28;45465;-58
2022/02/06 04:41:50;;;;;;;;;3.00;1.75;;;;;19.63;33.97;101384.72;5058143;28;45474;-57
2022/02/06 05:21:53;;;;;;;;;1.75;1.75;;;;;19.61;34.26;101344.50;5057480;28;45428;-56
2022/02/06 05:34:41;;;;;;;;;1.00;1.00;;;;;19.59;34.20;101314.78;5058036;28;45458;-60
2022/02/06 05:37:07;;;;;;;;;1.00;1.00;;;;;19.59;34.47;101312.13;5057106;28;46306;-57
2022/02/06 05:39:32;;;;;;;;;1.50;1.50;;;;;19.59;33.88;101313.00;5057149;28;45234;-60
2022/02/06 05:41:57;;;;;;;;;3.25;1.00;;;;;19.59;33.90;101322.66;5057178;28;45166;-59
2022/02/06 05:44:23;;;;;;;;;2.00;1.50;;;;;19.57;33.88;101319.25;5057235;28;45191;-57
2022/02/06 05:46:48;;;;;;;;;2.00;2.00;;;;;19.55;34.10;101310.59;5056968;28;45197;-58
2022/02/06 05:49:13;;;;;;;;;1.00;1.00;;;;;19.59;34.04;101309.50;5057291;28;45232;-58
2022/02/06 05:51:40;;;;;;;;;0.75;0.75;;;;;19.57;34.12;101300.84;5057039;28;45299;-58
2022/02/06 05:54:06;;;;;;;;;0.50;0.50;;;;;19.58;33.93;101306.03;5056093;28;45484;-58
2022/02/06 05:56:31;;;;;;;;;0.00;0.00;;;;;19.58;33.94;101294.66;5056804;28;46666;-59
2022/02/06 05:58:57;;;;;;;;;0.50;0.50;;;;;19.57;34.07;101292.94;5055398;28;45555;-57
2022/02/06 06:01:23;;;;;;;;;0.50;0.50;;;;;19.57;34.12;101303.47;5056961;28;45446;-58
2022/02/06 06:03:50;;;;;;;;;2.50;1.00;;;;;19.56;34.14;101305.25;5057035;28;45330;-59
2022/02/06 06:06:16;;;;;;;;;0.00;0.00;;;;;19.55;34.25;101297.44;5056957;28;47200;-59
2022/02/06 06:08:41;;;;;;;;;3.75;1.25;;;;;19.56;34.33;101294.72;5056705;28;45418;-59
2022/02/06 06:11:06;;;;;;;;;1.00;1.00;;;;;19.56;34.47;101291.25;5056688;28;45399;-58
2022/02/06 06:13:32;;;;;;;;;3.00;3.00;;;;;19.55;34.56;101290.41;5056630;28;45670;-60
2022/02/06 06:15:57;;;;;;;;;2.00;0.75;;;;;19.57;34.44;101287.69;5056346;28;46248;-60
2022/02/06 06:18:22;;;;;;;;;1.00;1.00;;;;;19.56;34.42;101288.63;5056619;28;45366;-56
2022/02/06 06:20:50;;;;;;;;;0.75;0.75;;;;;19.57;34.00;101298.22;5056984;28;45341;-56
2022/02/06 06:23:15;;;;;;;;;1.00;1.00;;;;;19.54;34.44;101277.34;5057333;28;45547;-60
2022/02/06 06:25:42;;;;;;;;;1.00;1.00;;;;;19.55;34.45;101276.41;5056466;28;45334;-57
2022/02/06 06:28:08;;;;;;;;;1.00;1.00;;;;;19.55;34.25;101263.25;5056487;28;45756;-58
2022/02/06 06:30:35;;;;;;;;;1.00;1.00;;;;;19.56;34.52;101262.34;5056752;28;45455;-57
2022/02/06 06:33:03;;;;;;;;;1.50;1.00;;;;;19.53;34.48;101258.06;5038866;28;45470;-55
2022/02/06 06:35:30;;;;;;;;;0.00;0.00;;;;;19.54;34.69;101257.13;5056589;28;46834;-56
2022/02/06 06:37:57;;;;;;;;;2.00;1.50;;;;;19.53;34.33;101271.19;5056409;28;45221;-61
2022/02/06 06:40:23;;;;;;;;;1.50;1.00;;;;;19.55;34.26;101258.00;5056493;28;45347;-57
2022/02/06 06:42:48;;;;;;;;;0.50;0.50;;;;;19.53;34.26;101268.56;5056911;28;45490;-60
2022/02/06 06:45:13;;;;;;;;;1.00;1.00;;;;;19.53;34.43;101270.34;5056279;28;46310;-57
2022/02/06 06:47:39;;;;;;;;;1.75;0.75;;;;;19.54;34.87;101282.59;5056353;28;45354;-60
2022/02/06 06:50:05;;;;;;;;;0.00;0.00;;;;;19.53;34.53;101265.09;5056404;28;45325;-57
2022/02/06 06:52:30;;;;;;;;;1.00;0.75;;;;;19.47;34.64;101264.44;5056355;28;45532;-57
2022/02/06 06:55:03;;;;;;;;;1.00;1.00;;;;;19.49;34.52;101247.75;5056107;28;45493;-62
2022/02/06 06:57:36;;;;;;;;;1.50;1.50;;;;;19.45;35.28;101242.66;5054710;28;45666;-61
2022/02/06 07:02:32;;;;;;;;;3.25;0.75;;;;;19.22;35.24;101240.16;5056350;28;45342;-58
2022/02/06 07:05:03;;;;;;;;;3.00;2.00;;;;;19.13;35.19;101252.75;5056207;28;46449;-59
2022/02/06 07:07:28;;;;;;;;;2.50;2.00;;;;;19.04;35.53;101242.66;5059368;28;45378;-66
2022/02/06 07:09:54;;;;;;;;;1.00;1.00;;;;;18.95;35.42;101237.78;5059482;28;45343;-56
2022/02/06 07:12:20;;;;;;;;;0.75;0.75;;;;;18.83;35.28;101226.84;5059991;28;45603;-61
2022/02/06 07:14:47;;;;;;;;;1.00;1.00;;;;;18.78;35.64;101225.31;5059311;28;46675;-59
2022/02/06 07:17:13;;;;;;;;;4.75;1.25;;;;;18.71;35.62;101235.22;5059461;28;45338;-59
2022/02/06 07:19:40;;;;;;;;;2.00;2.00;;;;;18.65;35.79;101222.38;5059619;28;45249;-56
2022/02/06 07:22:09;;;;;;;;;4.25;2.00;;;;;18.59;35.73;101217.34;5041422;28;45257;-58
2022/02/06 07:24:36;;;;;;;;;4.25;2.50;;;;;18.50;36.05;101211.56;5059129;28;46210;-62
2022/02/06 07:27:04;;;;;;;;;1.75;1.75;;;;;18.49;36.14;101215.09;5058050;28;45945;-60
2022/02/06 07:29:29;;;;;;;;;1.25;1.25;;;;;18.47;35.97;101203.81;5059351;28;45408;-58
2022/02/06 07:31:57;;;;;;;;;1.00;1.00;;;;;18.52;36.29;101215.00;5059339;28;45339;-61
2022/02/06 07:34:22;;;;;;;;;0.75;0.00;;;;;18.53;36.06;101208.81;5059060;28;46228;-55
2022/02/06 07:36:48;;;;;;;;;2.50;1.00;;;;;18.62;36.14;101210.22;5059325;28;45320;-58
2022/02/06 07:39:13;;;;;;;;;1.75;0.50;;;;;18.64;36.16;101202.28;5041211;28;45557;-60
2022/02/06 07:41:38;;;;;;;;;0.50;0.50;;;;;18.67;35.81;101196.91;5059405;28;45401;-57
2022/02/06 07:44:04;;;;;;;;;2.50;1.00;;;;;18.71;35.81;101193.22;5040783;28;46841;-58
2022/02/06 07:46:34;;;;;;;;;2.00;1.00;;;;;18.75;36.11;101171.19;5058854;28;45386;-57
2022/02/06 07:49:02;;;;;;;;;0.75;0.75;;;;;18.78;35.88;101172.81;5059057;28;45289;-57
2022/02/06 07:51:27;;;;;;;;;1.00;1.00;;;;;18.81;36.17;101172.69;5058919;28;45372;-57
2022/02/06 07:53:52;;;;;;;;;1.00;1.00;;;;;18.83;35.82;101170.84;5059032;28;45499;-58
2022/02/06 07:56:18;;;;;;;;;1.25;1.00;;;;;18.84;35.86;101176.03;5059198;28;45355;-57
2022/02/06 07:58:44;;;;;;;;;2.00;1.00;;;;;18.87;35.74;101155.81;5058932;28;45313;-56
2022/02/06 08:01:09;;;;;;;;;0.50;0.50;;;;;18.90;35.87;101150.44;5058911;28;45691;-61
2022/02/06 08:03:34;;;;;;;;;0.50;0.50;;;;;18.92;35.50;101145.94;5058705;28;46533;-58
2022/02/06 08:06:00;;;;;;;;;2.00;1.00;;;;;18.94;35.57;101131.00;5058473;28;45348;-56
2022/02/06 08:08:25;;;;;;;;;1.75;0.50;;;;;18.95;35.68;101132.72;5040735;28;45471;-59
2022/02/06 08:10:50;;;;;;;;;1.00;1.00;;;;;18.95;35.67;101123.09;5059060;28;45449;-64
2022/02/06 08:13:27;;;;;;;;;1.00;1.00;;;;;18.97;35.79;101112.50;5058443;28;46106;-58
2022/02/06 08:15:54;;;;;;;;;0.75;0.75;;;;;18.99;35.81;101108.03;5042375;28;45509;-59
2022/02/06 08:18:19;;;;;;;;;0.00;0.00;;;;;19.01;35.77;101114.09;5057791;28;45775;-58
2022/02/06 08:20:45;;;;;;;;;0.25;0.25;;;;;19.01;35.82;101111.44;5058685;28;45487;-62
2022/02/06 08:23:10;;;;;;;;;0.00;0.00;;;;;19.03;35.68;101114.00;5040301;28;46441;-59
2022/02/06 08:25:35;;;;;;;;;1.00;1.00;;;;;19.04;35.93;101116.56;5058278;28;45343;-58
2022/02/06 08:28:02;;;;;;;;;0.75;0.75;;;;;19.06;35.80;101112.09;5058442;28;45247;-59
2022/02/06 08:30:29;;;;;;;;;0.75;0.75;;;;;19.06;35.58;101108.63;5040540;28;45451;-60
2022/02/06 08:32:55;;;;;;;;;0.00;0.00;;;;;19.03;35.63;101112.22;5040246;28;46132;-59
2022/02/06 08:35:22;;;;;;;;;1.00;1.00;;;;;19.07;35.92;101107.69;5058530;28;45390;-60
2022/02/06 08:37:48;;;;;;;;;1.00;1.00;;;;;19.06;35.51;101098.94;5058300;28;45360;-56
2022/02/06 08:40:16;;;;;;;;;1.50;0.75;;;;;19.09;35.83;101088.31;5058446;28;45442;-60
2022/02/06 08:42:43;;;;;;;;;1.00;0.00;;;;;19.10;35.74;101081.28;5057964;28;45275;-57
2022/02/06 08:45:11;;;;;;;;;0.00;0.00;;;;;19.10;35.73;101079.50;5058034;28;45957;-58
2022/02/06 08:47:38;;;;;;;;;0.00;0.00;;;;;19.10;35.62;101084.75;5057339;28;45320;-58
2022/02/06 08:50:05;;;;;;;;;1.00;1.00;;;;;19.11;36.01;101081.22;5058186;28;45242;-58
2022/02/06 08:52:31;;;;;;;;;0.25;0.25;;;;;19.12;35.99;101082.94;5057764;28;46717;-58
2022/02/06 08:54:56;;;;;;;;;2.25;0.00;;;;;19.11;35.96;101081.22;5058013;28;45690;-55
2022/02/06 08:57:25;;;;;;;;;0.00;0.00;;;;;19.11;36.08;101065.44;5058393;28;45351;-60
2022/02/06 08:59:51;;;;;;;;;0.50;0.50;;;;;19.13;36.09;101053.06;5040051;28;45334;-60
2022/02/06 09:02:17;;;;;;;;;0.25;0.25;;;;;19.12;35.92;101059.28;5057601;28;45644;-60
2022/02/06 09:04:44;;;;;;;;;1.00;1.00;;;;;19.13;35.76;101049.59;5057781;28;45211;-59
2022/02/06 09:07:10;;;;;;;;;1.00;1.00;;;;;19.14;36.16;101060.03;5057726;28;45310;-57
2022/02/06 09:09:38;;;;;;;;;3.00;0.50;;;;;19.15;36.32;101042.50;5057928;28;45520;-54
2022/02/06 09:12:04;;;;;;;;;1.00;1.00;;;;;19.19;36.35;101051.09;5057475;28;47017;-55
2022/02/06 09:14:30;;;;;;;;;0.00;0.00;;;;;19.20;36.36;101037.03;5057333;28;45323;-59
2022/02/06 09:16:56;;;;;;;;;0.00;0.00;;;;;19.21;36.24;101028.25;5057863;28;45376;-59
2022/02/06 09:19:21;;;;;;;;;0.50;0.25;;;;;19.19;36.23;101028.28;5057685;28;45661;-58
2022/02/06 09:21:47;;;;;;;;;0.25;0.25;;;;;19.21;36.37;101041.38;5057506;28;45535;-58
2022/02/06 09:24:13;;;;;;;;;0.00;0.00;;;;;19.22;36.22;101029.94;5057661;28;45337;-58
2022/02/06 09:26:40;;;;;;;;;0.50;0.50;;;;;19.21;36.42;101030.88;5057509;28;45293;-58
2022/02/06 09:29:06;;;;;;;;;0.50;0.50;;;;;19.20;36.16;101021.28;5057578;28;45626;-58
2022/02/06 09:31:31;;;;;;;;;0.75;0.00;;;;;19.19;36.26;101019.56;5057111;28;45710;-62
2022/02/06 09:36:23;;;;;;;;;3.00;1.00;;;;;19.19;36.78;101015.16;5057420;28;45295;-57
2022/02/06 09:38:48;;;;;;;;;1.00;1.00;;;;;19.19;36.39;101022.19;5057596;28;45907;-59
2022/02/06 09:41:14;;;;;;;;;2.00;0.00;;;;;19.20;36.42;101019.50;5057039;28;46318;-59
2022/02/06 09:43:40;;;;;;;;;1.00;1.00;;;;;19.21;36.70;101012.47;5057018;28;45461;-57
2022/02/06 09:46:05;;;;;;;;;2.00;0.00;;;;;19.20;36.84;101016.03;5038984;28;45337;-60
2022/02/06 09:48:31;;;;;;;;;0.50;0.50;;;;;19.21;36.60;101007.22;5057453;28;45385;-60
2022/02/06 09:50:59;;;;;;;;;0.00;0.00;;;;;19.21;36.85;101012.47;5057179;28;45411;-62
2022/02/06 09:53:31;;;;;;;;;3.00;1.00;;;;;19.20;37.24;100995.00;5057251;28;45721;-56
2022/02/06 09:56:01;;;;;;;;;0.00;0.00;;;;;19.18;37.12;101007.34;5057437;28;45311;-59
2022/02/06 10:01:08;;;;;;;;;3.00;1.00;;;;;19.18;37.29;101005.59;5056663;28;45901;-57
2022/02/06 10:03:43;;;;;;;;;0.25;0.25;;;;;19.16;37.38;101003.03;5038809;28;46040;-56
2022/02/06 10:06:20;;;;;;;;;0.25;0.25;;;;;19.16;37.29;101000.41;5039219;28;45345;-61
2022/02/06 10:08:47;;;;;;;;;1.75;0.00;;;;;19.19;37.29;100993.28;5057028;28;45364;-62
2022/02/06 10:11:15;;;;;;;;;0.00;0.00;;;;;19.19;37.21;100994.13;5056758;28;46531;-59
2022/02/06 10:13:44;;;;;;;;;1.00;1.00;;;;;19.19;37.23;100998.56;5056446;28;45393;-58
2022/02/06 10:16:15;;;;;;;;;1.00;1.00;;;;;19.20;37.13;101000.25;5056944;28;45263;-56
2022/02/06 10:18:44;;;;;;;;;2.50;2.00;;;;;19.20;37.00;100979.25;5056841;28;45545;-58
2022/02/06 10:21:14;;;;;;;;;1.00;1.00;;;;;19.19;37.30;100982.78;5056447;28;46092;-58
2022/02/06 10:23:46;;;;;;;;;0.00;0.00;;;;;19.20;37.47;101001.09;5056511;28;45749;-57
2022/02/06 10:26:31;;;;;;;;;1.25;0.00;;;;;19.22;37.18;100998.41;5056365;28;45239;-57
2022/02/06 10:29:21;;;;;;;;;1.00;1.00;;;;;19.20;37.35;101008.97;5057144;28;45256;-58
2022/02/06 10:31:49;;;;;;;;;0.00;0.00;;;;;19.18;37.42;100992.47;5056112;28;45483;-57
2022/02/06 10:34:35;;;;;;;;;2.00;0.75;;;;;19.21;37.21;100991.47;5056445;28;45239;-56
2022/02/06 10:37:22;;;;;;;;;0.00;0.00;;;;;19.22;37.20;100994.00;5056706;28;45290;-59
2022/02/06 10:40:06;;;;;;;;;0.00;0.00;;;;;19.22;37.44;100983.50;5054649;28;45501;-56
2022/02/06 10:42:33;;;;;;;;;0.75;0.75;;;;;19.22;37.27;100980.03;5038164;28;48280;-57
2022/02/06 10:45:19;;;;;;;;;1.25;1.25;;;;;19.23;37.45;101000.13;5056715;28;45742;-56
2022/02/06 10:47:46;;;;;;;;;0.75;0.75;;;;;19.23;37.42;100989.63;5056336;28;45430;-57
2022/02/06 10:50:18;;;;;;;;;1.75;0.00;;;;;19.23;37.42;101000.97;5056486;28;45325;-55
2022/02/06 10:52:44;;;;;;;;;1.00;0.00;;;;;19.23;37.23;100984.34;5055915;28;46596;-58
2022/02/06 10:55:13;;;;;;;;;0.50;0.50;;;;;19.23;37.24;100979.94;5056218;28;45345;-58
2022/02/06 10:57:54;;;;;;;;;1.00;1.00;;;;;19.23;37.58;100955.44;5056220;28;45363;-58
2022/02/06 11:00:34;;;;;;;;;2.00;2.00;;;;;19.24;37.11;100970.25;5056506;28;45418;-56
2022/02/06 11:03:21;;;;;;;;;1.00;1.00;;;;;19.25;37.21;100950.94;5056169;28;45784;-57
2022/02/06 11:05:52;;;;;;;;;1.00;0.00;;;;;19.24;37.49;100944.00;5056045;28;45857;-58
2022/02/06 11:08:29;;;;;;;;;2.00;1.00;;;;;19.25;37.69;100943.06;5056035;28;45190;-56
2022/02/06 11:10:59;;;;;;;;;0.00;0.00;;;;;19.25;37.73;100935.19;5056261;28;45319;-58
2022/02/06 11:13:25;;;;;;;;;2.00;0.75;;;;;19.23;37.36;100927.38;5055735;28;46763;-57
2022/02/06 11:15:51;;;;;;;;;2.00;1.00;;;;;19.25;37.58;100919.41;5055611;28;45342;-57
2022/02/06 11:18:22;;;;;;;;;1.00;0.00;;;;;19.24;37.39;100933.47;5056043;28;45348;-56
2022/02/06 11:21:07;;;;;;;;;0.00;0.00;;;;;19.26;37.26;100932.50;5056124;28;45276;-59
2022/02/06 11:23:39;;;;;;;;;0.75;0.00;;;;;19.25;37.71;100919.41;5037858;28;48014;-55
2022/02/06 11:26:06;;;;;;;;;2.00;0.75;;;;;19.23;37.94;100901.09;5055602;28;45853;-58
2022/02/06 11:28:33;;;;;;;;;0.00;0.00;;;;;19.24;37.63;100876.53;5056245;28;45382;-59
2022/02/06 11:30:58;;;;;;;;;0.00;0.00;;;;;19.22;37.74;100882.81;5056072;28;45335;-59
2022/02/06 11:33:24;;;;;;;;;1.00;1.00;;;;;19.22;37.69;100909.06;5055622;28;46220;-56
2022/02/06 11:35:59;;;;;;;;;0.00;0.00;;;;;19.21;37.74;100905.59;5055626;28;45487;-57
2022/02/06 11:44:49;;;;;;;;;0.25;0.25;;;;;19.19;38.08;100880.31;5055601;28;45794;-59
2022/02/06 11:47:22;;;;;;;;;2.00;0.50;;;;;19.19;38.42;100882.94;5055602;28;45819;-57
2022/02/06 11:49:50;;;;;;;;;0.25;0.25;;;;;19.15;38.18;100877.84;5055667;28;45217;-56
2022/02/06 11:52:16;;;;;;;;;1.00;1.00;;;;;19.19;38.43;100872.44;5056388;28;45624;-59
2022/02/06 11:54:52;;;;;;;;;0.75;0.75;;;;;19.19;37.97;100880.31;5040450;28;47824;-57
2022/02/06 11:57:28;;;;;;;;;1.25;0.00;;;;;19.19;38.47;100869.81;5058772;28;45412;-57
2022/02/06 12:00:03;;;;;;;;;0.00;0.00;;;;;19.21;38.09;100865.34;5058787;28;45449;-59
2022/02/06 12:02:30;;;;;;;;;2.00;0.00;;;;;19.21;38.59;100865.34;5058975;28;45556;-58
2022/02/06 12:05:14;;;;;;;;;1.00;0.00;;;;;19.22;38.15;100882.81;5058583;28;45499;-59
2022/02/06 12:07:51;;;;;;;;;1.00;1.00;;;;;19.20;38.25;100863.63;5058446;28;45375;-61
2022/02/06 12:10:16;;;;;;;;;0.25;0.25;;;;;19.20;38.43;100888.09;5058745;28;45307;-58
2022/02/06 12:12:42;;;;;;;;;3.25;0.25;;;;;19.21;38.63;100870.59;5058737;28;45623;-57
2022/02/06 12:15:31;;;;;;;;;1.25;1.00;;;;;19.19;38.56;100885.56;5058257;28;45284;-56
2022/02/06 12:18:06;;;;;;;;;0.00;0.00;;;;;19.19;38.72;100861.91;5058496;28;45273;-59
2022/02/06 12:20:48;;;;;;;;;1.00;0.25;;;;;19.20;38.66;100859.22;5040740;28;45410;-59
2022/02/06 12:23:58;;;;;;;;;1.00;1.00;;;;;19.20;38.88;100837.34;5040776;28;45523;-59
2022/02/06 12:26:30;;;;;;;;;1.50;0.25;;;;;19.20;39.10;100834.72;5058334;28;46671;-62
2022/02/06 12:29:09;;;;;;;;;1.25;1.00;;;;;19.19;38.96;100848.78;5058271;28;45237;-60
2022/02/06 12:32:03;;;;;;;;;0.00;0.00;;;;;19.21;38.84;100837.25;5058598;28;45472;-57
2022/02/06 12:37:33;;;;;;;;;1.75;0.75;;;;;19.19;38.82;100818.09;5058086;28;45269;-59
2022/02/06 12:40:03;;;;;;;;;2.00;2.00;;;;;19.19;39.01;100831.22;5058063;28;45456;-55
2022/02/06 12:42:38;;;;;;;;;1.00;1.00;;;;;19.20;39.05;100816.34;5058286;28;45363;-57
2022/02/06 12:45:06;;;;;;;;;1.00;1.00;;;;;19.19;39.17;100823.34;5040565;28;45300;-56
2022/02/06 12:47:33;;;;;;;;;0.00;0.00;;;;;19.18;39.05;100802.41;5057942;28;47009;-56
2022/02/06 12:49:59;;;;;;;;;0.25;0.25;;;;;19.18;39.26;100813.78;5058027;28;45280;-56
2022/02/06 12:52:25;;;;;;;;;0.25;0.25;;;;;19.20;39.45;100805.81;5058046;28;45288;-58
2022/02/06 12:54:51;;;;;;;;;1.50;0.75;;;;;19.18;39.43;100797.16;5058241;28;45572;-56
2022/02/06 12:57:20;;;;;;;;;1.50;1.00;;;;;19.18;39.40;100805.91;5057712;28;45470;-56
2022/02/06 12:59:47;;;;;;;;;0.50;0.00;;;;;19.18;39.51;100802.41;5057797;28;45277;-58
2022/02/06 13:02:14;;;;;;;;;1.00;1.00;;;;;19.18;39.33;100808.53;5056808;28;45584;-57
2022/02/06 13:04:42;;;;;;;;;0.25;0.00;;;;;19.18;39.63;100808.53;5057406;28;45424;-60
2022/02/06 13:07:08;;;;;;;;;0.25;0.25;;;;;19.17;39.45;100806.84;5057775;28;47086;-59
2022/02/06 13:09:39;;;;;;;;;0.75;0.75;;;;;19.18;39.38;100799.78;5057910;28;45332;-56
2022/02/06 13:12:15;;;;;;;;;1.25;0.75;;;;;19.17;39.93;100817.34;5057917;28;45485;-57
2022/02/06 13:22:38;;;;;;;;;0.50;0.50;;;;;19.23;40.22;100824.91;5057556;28;45351;-57
2022/02/06 13:30:49;;;;;;;;;0.00;0.00;;;;;19.27;40.21;100823.84;5057337;28;45724;-59
2022/02/06 13:39:08;;;;;;;;;0.50;0.50;;;;;19.26;39.71;100802.88;5057282;28;45391;-57
2022/02/06 13:41:34;;;;;;;;;2.50;1.00;;;;;19.27;39.75;100801.94;5057112;28;45742;-60
2022/02/06 13:44:01;;;;;;;;;1.00;1.00;;;;;19.26;39.88;100797.63;5039226;28;45333;-59
2022/02/06 13:46:33;;;;;;;;;0.50;0.50;;;;;19.26;40.14;100801.13;5057399;28;45317;-61
2022/02/06 13:48:59;;;;;;;;;0.00;0.00;;;;;19.26;40.12;100795.84;5056890;28;45551;-60
2022/02/06 13:51:25;;;;;;;;;0.75;0.00;;;;;19.24;40.34;100787.19;5056976;28;45801;-59
2022/02/06 13:54:03;;;;;;;;;1.00;1.00;;;;;19.26;40.07;100789.75;5057072;28;45225;-61
2022/02/06 13:56:32;;;;;;;;;1.50;0.50;;;;;19.26;40.12;100755.56;5057123;28;45359;-59
2022/02/06 13:59:04;;;;;;;;;0.00;0.00;;;;;19.27;39.96;100757.28;5056885;28;46064;-61
2022/02/06 14:01:51;;;;;;;;;1.00;1.00;;;;;19.25;40.14;100746.00;5056822;28;45371;-59
2022/02/06 14:04:34;;;;;;;;;3.50;1.00;;;;;19.25;40.03;100733.72;5057183;28;45431;-60
2022/02/06 14:07:18;;;;;;;;;0.00;0.00;;;;;19.28;39.74;100745.84;5057149;28;45259;-58
2022/02/06 14:09:59;;;;;;;;;1.00;1.00;;;;;19.26;39.72;100743.31;5056675;28;45684;-58
2022/02/06 14:12:25;;;;;;;;;0.75;0.00;;;;;19.27;40.16;100741.50;5056621;28;45852;-57
2022/02/06 14:15:02;;;;;;;;;0.25;0.25;;;;;19.25;39.95;100723.22;5037576;28;45443;-59
2022/02/06 14:17:38;;;;;;;;;2.00;0.00;;;;;19.25;40.00;100707.44;5055777;28;45651;-59
2022/02/06 14:20:12;;;;;;;;;0.00;0.00;;;;;19.26;39.83;100722.28;5056678;28;46707;-58